TimeMDT,TemperatureF,Dew PointF,Humidity,Sea Level PressureIn,VisibilityMPH,Wind Direction,Wind SpeedMPH,Gust SpeedMPH,PrecipitationIn,Events,Conditions,WindDirDegrees,DateUTC
12:53 AM,48.0,24.1,39,30.10,10.0,South,6.9,-,N/A,,Clear,190,2013-05-13 06:53:00
1:53 AM,46.0,25.0,44,30.08,10.0,West,6.9,-,N/A,,Clear,270,2013-05-13 07:53:00
2:53 AM,41.0,23.0,49,30.12,10.0,Calm,Calm,-,N/A,,Clear,0,2013-05-13 08:53:00
3:53 AM,46.0,25.0,44,30.08,10.0,North,4.6,-,N/A,,Clear,10,2013-05-13 09:53:00
4:53 AM,39.9,23.0,51,30.12,10.0,East,6.9,-,N/A,,Clear,80,2013-05-13 10:53:00
5:53 AM,43.0,23.0,45,30.12,10.0,NNE,3.5,-,N/A,,Clear,20,2013-05-13 11:53:00
6:53 AM,48.9,25.0,39,30.11,10.0,NNE,5.8,-,N/A,,Clear,30,2013-05-13 12:53:00
7:53 AM,53.1,26.1,35,30.12,10.0,ENE,4.6,-,N/A,,Clear,60,2013-05-13 13:53:00
8:53 AM,63.0,27.0,26,30.10,10.0,North,-9999.0,-,N/A,,Clear,0,2013-05-13 14:53:00
9:53 AM,69.1,25.0,19,30.08,10.0,SSW,8.1,-,N/A,,Clear,200,2013-05-13 15:53:00
10:53 AM,71.1,25.0,18,30.09,10.0,Calm,Calm,-,N/A,,Clear,0,2013-05-13 16:53:00
11:53 AM,73.9,21.9,14,30.07,10.0,SE,16.1,20.7,N/A,,Clear,130,2013-05-13 17:53:00
12:53 PM,75.9,23.0,14,30.05,10.0,SE,12.7,20.7,N/A,,Scattered Clouds,130,2013-05-13 18:53:00
2:53 PM,78.1,21.9,12,30.04,10.0,South,16.1,24.2,N/A,,Partly Cloudy,190,2013-05-13 20:53:00
3:53 PM,75.9,21.0,13,30.01,10.0,South,11.5,26.5,N/A,,Clear,190,2013-05-13 21:53:00
4:53 PM,75.9,19.9,12,30.01,10.0,SW,9.2,16.1,N/A,,Partly Cloudy,230,2013-05-13 22:53:00
6:53 PM,71.1,21.0,15,29.98,10.0,South,18.4,-,N/A,,Clear,170,2013-05-14 00:53:00
7:53 PM,66.9,19.0,16,30.00,10.0,South,13.8,-,N/A,,Clear,170,2013-05-14 01:53:00
8:53 PM,59.0,18.0,20,30.01,10.0,South,11.5,-,N/A,,Clear,170,2013-05-14 02:53:00
9:53 PM,60.1,18.0,20,30.00,10.0,South,16.1,-,N/A,,Clear,190,2013-05-14 03:53:00
10:53 PM,53.1,16.0,23,30.03,10.0,SSW,13.8,-,N/A,,Clear,200,2013-05-14 04:53:00
11:53 PM,53.1,16.0,23,30.01,10.0,SSW,15.0,-,N/A,,Clear,200,2013-05-14 05:53:00